Symmes, Ohio
Current Conditions -  °F | °C
As of 1:53 PM on Friday 31 Oct 2014 (Local Time) from KHAO Reporting Station
Light Rain Light Rain  
Wind Chill: 36°   Ceiling: 2800
Heat Index: 42°   Visibility: 10mi
Dew Point: 39°   Wind: 12mph
Humidity: 89%   Direction: 330°NNW
Pressure: 29.94"   Gusts: NA
Location:  39.2698°N, 84.3325°W
Report Text: KHAO 311753Z AUTO 33010KT 10SM -RA SCT015 BKN028 OVC033 06/04 A2994 RMK AO2 SLP142 P0003 60008 T00560039 10078 20028 58008
Loading
Personal Weather Stations






























Interactive Weather Map
Tropical Storm Tracking
New forecast layout! Learn more

10-Day Weather Forecast

Advertisements
Track Severe Weather on mobile